Time,TemperatureF,DewpointF,PressureIn,WindDirection,WindDirectionDegrees,WindSpeedMPH,WindSpeedGustMPH,Humidity,HourlyPrecipIn,Conditions,Clouds,dailyrainin,SolarRadiationWatts/m^2,SoftwareType,DateUTC
2013-05-31 00:01:00,73.0,68.0,29.81,WSW,244,4.0,9.0,84,0.00,,,0.00,0.0,meteohub,2013-05-31 04:01:00,
2013-05-31 00:06:00,72.9,67.5,29.81,SW,223,6.0,10.0,83,0.00,,,0.00,0.0,meteohub,2013-05-31 04:06:00,
2013-05-31 00:11:00,72.5,67.5,29.81,SW,229,1.0,10.0,84,0.00,,,0.00,0.0,meteohub,2013-05-31 04:11:00,
2013-05-31 00:16:00,72.1,67.1,29.81,WNW,295,4.0,11.0,84,0.00,,,0.00,0.0,meteohub,2013-05-31 04:16:00,
2013-05-31 00:21:00,71.8,66.4,29.81,South,185,5.0,11.0,83,0.00,,,0.00,0.0,meteohub,2013-05-31 04:21:00,
2013-05-31 00:26:00,71.4,66.4,29.81,SW,222,4.0,11.0,84,0.00,,,0.00,0.0,meteohub,2013-05-31 04:26:00,
2013-05-31 00:31:00,71.2,66.2,29.81,SW,234,3.0,9.0,84,0.00,,,0.00,0.0,meteohub,2013-05-31 04:31:00,
2013-05-31 00:37:00,71.2,66.2,29.81,West,280,1.0,9.0,84,0.00,,,0.00,0.0,meteohub,2013-05-31 04:37:00,
2013-05-31 00:42:00,71.2,65.8,29.81,SSW,205,4.0,7.0,83,0.00,,,0.00,0.0,meteohub,2013-05-31 04:42:00,
2013-05-31 00:46:00,71.2,65.8,29.82,SW,232,3.0,7.0,83,0.00,,,0.00,0.0,meteohub,2013-05-31 04:46:00,
2013-05-31 00:51:00,71.1,65.7,29.82,SW,234,4.0,7.0,83,0.00,,,0.00,0.0,meteohub,2013-05-31 04:51:00,
2013-05-31 00:57:00,71.2,65.8,29.82,WSW,247,3.0,7.0,83,0.00,,,0.00,0.0,meteohub,2013-05-31 04:57:00,
2013-05-31 01:02:00,71.2,66.2,29.82,WSW,250,3.0,10.0,84,0.00,,,0.00,0.0,meteohub,2013-05-31 05:02:00,
2013-05-31 01:07:00,71.1,66.4,29.82,SSW,202,4.0,10.0,85,0.00,,,0.00,0.0,meteohub,2013-05-31 05:07:00,
2013-05-31 01:12:00,70.9,66.2,29.83,WSW,255,7.0,10.0,85,0.00,,,0.00,0.0,meteohub,2013-05-31 05:12:00,
2013-05-31 01:17:00,70.5,66.2,29.83,SW,217,9.0,11.0,86,0.00,,,0.00,0.0,meteohub,2013-05-31 05:17:00,
2013-05-31 01:22:00,70.5,65.8,29.83,SW,219,7.0,15.0,85,0.00,,,0.00,0.0,meteohub,2013-05-31 05:22:00,
2013-05-31 01:27:00,70.0,64.6,29.83,WSW,240,3.0,15.0,83,0.01,,,0.01,0.0,meteohub,2013-05-31 05:27:00,
2013-05-31 01:32:00,69.6,64.6,29.82,WSW,253,4.0,15.0,84,0.01,,,0.01,0.0,meteohub,2013-05-31 05:32:00,
2013-05-31 01:37:00,69.1,64.4,29.82,SW,217,1.0,13.0,85,0.01,,,0.01,0.0,meteohub,2013-05-31 05:37:00,
2013-05-31 01:42:00,68.7,64.4,29.83,WSW,241,3.0,13.0,86,0.01,,,0.01,0.0,meteohub,2013-05-31 05:42:00,
2013-05-31 01:47:00,68.4,64.0,29.82,SW,230,4.0,9.0,86,0.01,,,0.01,0.0,meteohub,2013-05-31 05:47:00,
2013-05-31 01:52:00,68.4,64.0,29.83,SW,234,2.0,9.0,86,0.01,,,0.01,0.0,meteohub,2013-05-31 05:52:00,
2013-05-31 01:57:00,68.4,64.0,29.83,WSW,244,2.0,8.0,86,0.01,,,0.01,0.0,meteohub,2013-05-31 05:57:00,
2013-05-31 02:02:00,68.2,63.9,29.83,WNW,303,1.0,8.0,86,0.01,,,0.01,0.0,meteohub,2013-05-31 06:02:00,
2013-05-31 02:07:00,68.0,64.4,29.82,West,266,1.0,8.0,88,0.01,,,0.01,0.0,meteohub,2013-05-31 06:07:00,
2013-05-31 02:12:00,67.6,64.2,29.82,SW,228,4.0,7.0,89,0.02,,,0.02,0.0,meteohub,2013-05-31 06:12:00,
2013-05-31 02:17:00,67.5,64.4,29.82,SW,229,3.0,8.0,90,0.02,,,0.02,0.0,meteohub,2013-05-31 06:17:00,
2013-05-31 02:22:00,67.3,64.6,29.81,SSW,200,2.0,8.0,91,0.02,,,0.02,0.0,meteohub,2013-05-31 06:22:00,
2013-05-31 02:27:00,67.1,64.4,29.81,SW,221,2.0,6.0,91,0.01,,,0.02,0.0,meteohub,2013-05-31 06:27:00,
2013-05-31 02:32:00,66.7,64.4,29.81,South,190,1.0,5.0,92,0.01,,,0.02,0.0,meteohub,2013-05-31 06:32:00,
2013-05-31 02:37:00,66.7,64.4,29.80,SSW,200,1.0,5.0,92,0.01,,,0.02,0.0,meteohub,2013-05-31 06:37:00,
2013-05-31 02:42:00,66.6,64.4,29.80,SSW,194,1.0,4.0,93,0.01,,,0.02,0.0,meteohub,2013-05-31 06:42:00,
2013-05-31 02:47:00,66.4,64.2,29.79,SSW,213,1.0,4.0,93,0.01,,,0.02,0.0,meteohub,2013-05-31 06:47:00,
2013-05-31 02:52:00,66.2,64.0,29.79,SW,223,1.0,3.0,93,0.01,,,0.02,0.0,meteohub,2013-05-31 06:52:00,
2013-05-31 02:57:00,66.0,63.9,29.79,SW,223,0.0,3.0,93,0.01,,,0.02,0.0,meteohub,2013-05-31 06:57:00,
2013-05-31 03:02:00,65.8,63.7,29.79,SW,223,1.0,2.0,93,0.01,,,0.02,0.0,meteohub,2013-05-31 07:02:00,
2013-05-31 03:07:00,65.8,63.7,29.78,SW,223,0.0,2.0,93,0.01,,,0.02,0.0,meteohub,2013-05-31 07:07:00,
2013-05-31 03:12:00,65.7,63.9,29.78,SW,223,0.0,2.0,94,0.00,,,0.02,0.0,meteohub,2013-05-31 07:12:00,
2013-05-31 03:17:00,65.7,63.9,29.78,SW,223,0.0,2.0,94,0.00,,,0.02,0.0,meteohub,2013-05-31 07:17:00,
2013-05-31 03:22:00,65.7,63.9,29.78,SW,223,0.0,2.0,94,0.00,,,0.02,0.0,meteohub,2013-05-31 07:22:00,
2013-05-31 03:27:00,65.5,63.7,29.78,SW,223,0.0,1.0,94,0.00,,,0.02,0.0,meteohub,2013-05-31 07:27:00,
2013-05-31 03:32:00,65.5,63.7,29.78,SW,223,0.0,1.0,94,0.00,,,0.02,0.0,meteohub,2013-05-31 07:32:00,
2013-05-31 03:37:00,65.1,63.3,29.77,SW,223,0.0,1.0,94,0.00,,,0.02,0.0,meteohub,2013-05-31 07:37:00,
2013-05-31 03:42:00,65.7,64.4,29.77,SSW,211,2.0,2.0,96,0.00,,,0.02,0.0,meteohub,2013-05-31 07:42:00,
2013-05-31 03:47:00,66.0,64.8,29.77,SSW,192,2.0,7.0,96,0.00,,,0.02,0.0,meteohub,2013-05-31 07:47:00,
2013-05-31 03:52:00,66.4,65.1,29.77,SSW,209,1.0,7.0,96,0.00,,,0.02,0.0,meteohub,2013-05-31 07:52:00,
2013-05-31 03:57:00,66.7,65.5,29.77,WSW,237,1.0,5.0,96,0.00,,,0.02,0.0,meteohub,2013-05-31 07:57:00,
2013-05-31 04:02:00,66.9,65.7,29.77,South,185,2.0,5.0,96,0.00,,,0.02,0.0,meteohub,2013-05-31 08:02:00,
2013-05-31 04:07:00,67.5,66.0,29.76,SW,220,3.0,6.0,95,0.00,,,0.02,0.0,meteohub,2013-05-31 08:07:00,
2013-05-31 04:12:00,67.6,66.2,29.76,WSW,251,2.0,6.0,95,0.00,,,0.02,0.0,meteohub,2013-05-31 08:12:00,
2013-05-31 04:17:00,68.0,66.2,29.76,South,175,2.0,6.0,94,0.00,,,0.02,0.0,meteohub,2013-05-31 08:17:00,
2013-05-31 04:22:00,68.4,66.6,29.76,SW,215,2.0,6.0,94,0.00,,,0.02,0.0,meteohub,2013-05-31 08:22:00,
2013-05-31 04:27:00,68.5,66.4,29.76,SSW,207,3.0,8.0,93,0.00,,,0.02,0.0,meteohub,2013-05-31 08:27:00,
2013-05-31 04:32:00,68.7,66.6,29.76,SSW,201,2.0,8.0,93,0.00,,,0.02,0.0,meteohub,2013-05-31 08:32:00,
2013-05-31 04:37:00,68.5,66.4,29.76,SW,229,1.0,8.0,93,0.00,,,0.02,0.0,meteohub,2013-05-31 08:37:00,
2013-05-31 04:42:00,68.5,66.4,29.76,SSW,193,1.0,6.0,93,0.00,,,0.02,0.0,meteohub,2013-05-31 08:42:00,
2013-05-31 04:47:00,68.5,66.4,29.76,SW,224,1.0,6.0,93,0.00,,,0.02,0.0,meteohub,2013-05-31 08:47:00,
2013-05-31 04:52:00,68.5,66.4,29.76,SSW,212,1.0,6.0,93,0.00,,,0.02,0.0,meteohub,2013-05-31 08:52:00,
2013-05-31 04:57:00,68.4,66.2,29.76,SSW,196,1.0,8.0,93,0.00,,,0.02,0.0,meteohub,2013-05-31 08:57:00,
2013-05-31 05:03:00,68.4,66.2,29.76,WSW,244,0.0,8.0,93,0.00,,,0.02,0.0,meteohub,2013-05-31 09:03:00,
2013-05-31 05:08:00,68.4,66.2,29.76,SW,235,1.0,6.0,93,0.00,,,0.02,0.0,meteohub,2013-05-31 09:08:00,
2013-05-31 05:13:00,68.2,66.4,29.75,SW,217,2.0,6.0,94,0.00,,,0.02,0.0,meteohub,2013-05-31 09:13:00,
2013-05-31 05:18:00,68.2,66.4,29.75,SSW,195,0.0,5.0,94,0.00,,,0.02,0.0,meteohub,2013-05-31 09:18:00,
2013-05-31 05:23:00,68.4,66.2,29.75,SSW,196,4.0,6.0,93,0.00,,,0.02,0.0,meteohub,2013-05-31 09:23:00,
2013-05-31 05:28:00,68.5,66.4,29.76,SSW,213,2.0,6.0,93,0.00,,,0.02,0.0,meteohub,2013-05-31 09:28:00,
2013-05-31 05:33:00,68.5,66.4,29.76,South,185,1.0,6.0,93,0.00,,,0.02,0.0,meteohub,2013-05-31 09:33:00,
2013-05-31 05:38:00,68.7,66.6,29.76,South,171,3.0,6.0,93,0.00,,,0.02,0.0,meteohub,2013-05-31 09:38:00,
2013-05-31 05:43:00,69.1,66.7,29.76,South,180,2.0,8.0,92,0.00,,,0.02,0.0,meteohub,2013-05-31 09:43:00,
2013-05-31 05:48:00,69.3,66.9,29.76,SSW,197,2.0,8.0,92,0.00,,,0.02,0.0,meteohub,2013-05-31 09:48:00,
2013-05-31 05:53:00,69.3,66.9,29.76,SW,230,2.0,8.0,92,0.00,,,0.02,0.0,meteohub,2013-05-31 09:53:00,
2013-05-31 05:58:00,69.4,67.1,29.76,SW,234,7.0,7.0,92,0.00,,,0.02,9.0,meteohub,2013-05-31 09:58:00,
2013-05-31 06:03:00,69.4,66.7,29.76,SSW,204,5.0,8.0,91,0.00,,,0.02,14.0,meteohub,2013-05-31 10:03:00,
2013-05-31 06:08:00,69.6,66.9,29.76,SW,231,4.0,9.0,91,0.00,,,0.02,26.0,meteohub,2013-05-31 10:08:00,
2013-05-31 06:13:00,69.8,67.1,29.76,South,180,3.0,9.0,91,0.00,,,0.02,35.0,meteohub,2013-05-31 10:13:00,
2013-05-31 06:18:00,69.8,67.1,29.75,SW,225,2.0,8.0,91,0.00,,,0.02,58.0,meteohub,2013-05-31 10:18:00,
2013-05-31 06:23:00,70.0,66.9,29.75,SW,230,3.0,8.0,90,0.00,,,0.02,79.0,meteohub,2013-05-31 10:23:00,
2013-05-31 06:28:00,70.2,67.1,29.75,South,175,4.0,8.0,90,0.00,,,0.02,77.0,meteohub,2013-05-31 10:28:00,
2013-05-31 06:33:00,70.3,66.9,29.75,SSW,196,1.0,8.0,89,0.00,,,0.02,76.0,meteohub,2013-05-31 10:33:00,
2013-05-31 06:38:00,70.5,67.1,29.75,SSW,193,2.0,8.0,89,0.00,,,0.02,83.0,meteohub,2013-05-31 10:38:00,
2013-05-31 06:43:00,70.5,66.7,29.75,WSW,250,5.0,8.0,88,0.00,,,0.02,56.0,meteohub,2013-05-31 10:43:00,
2013-05-31 06:48:00,70.3,66.9,29.75,WSW,250,5.0,7.0,89,0.00,,,0.02,67.0,meteohub,2013-05-31 10:48:00,
2013-05-31 06:53:00,70.3,66.6,29.75,South,185,2.0,8.0,88,0.00,,,0.02,67.0,meteohub,2013-05-31 10:53:00,
2013-05-31 06:58:00,70.2,66.4,29.75,SSW,208,6.0,8.0,88,0.00,,,0.02,60.0,meteohub,2013-05-31 10:58:00,
2013-05-31 07:03:00,70.0,66.2,29.75,SSW,213,1.0,8.0,88,0.00,,,0.02,42.0,meteohub,2013-05-31 11:03:00,
2013-05-31 07:08:00,69.8,66.0,29.75,SW,223,1.0,8.0,88,0.00,,,0.02,35.0,meteohub,2013-05-31 11:08:00,
2013-05-31 07:13:00,69.6,65.7,29.74,WSW,244,3.0,8.0,87,0.00,,,0.02,40.0,meteohub,2013-05-31 11:13:00,
2013-05-31 07:18:00,69.4,65.7,29.74,SW,232,2.0,5.0,88,0.00,,,0.02,54.0,meteohub,2013-05-31 11:18:00,
2013-05-31 07:23:00,69.4,65.5,29.74,SW,225,2.0,5.0,87,0.00,,,0.02,79.0,meteohub,2013-05-31 11:23:00,
2013-05-31 07:28:00,69.4,65.7,29.74,South,190,3.0,5.0,88,0.00,,,0.02,83.0,meteohub,2013-05-31 11:28:00,
2013-05-31 07:33:00,69.4,65.5,29.74,SSW,197,4.0,5.0,87,0.00,,,0.02,116.0,meteohub,2013-05-31 11:33:00,
2013-05-31 07:38:00,69.4,65.1,29.73,SSW,213,3.0,6.0,86,0.00,,,0.02,135.0,meteohub,2013-05-31 11:38:00,
2013-05-31 07:43:00,69.8,65.5,29.73,WSW,240,1.0,6.0,86,0.00,,,0.02,193.0,meteohub,2013-05-31 11:43:00,
2013-05-31 07:48:00,70.2,65.5,29.74,WSW,252,2.0,7.0,85,0.00,,,0.02,288.0,meteohub,2013-05-31 11:48:00,
2013-05-31 07:53:00,70.5,65.5,29.74,SW,233,3.0,7.0,84,0.00,,,0.02,207.0,meteohub,2013-05-31 11:53:00,
2013-05-31 07:58:00,71.1,65.7,29.74,SW,234,6.0,7.0,83,0.00,,,0.02,264.0,meteohub,2013-05-31 11:58:00,
2013-05-31 08:03:00,71.2,65.5,29.74,SW,229,8.0,9.0,82,0.00,,,0.02,218.0,meteohub,2013-05-31 12:03:00,
2013-05-31 08:08:00,71.4,65.3,29.74,SSW,210,3.0,9.0,81,0.00,,,0.02,130.0,meteohub,2013-05-31 12:08:00,
2013-05-31 08:13:00,71.2,65.5,29.74,SSW,196,7.0,10.0,82,0.00,,,0.02,95.0,meteohub,2013-05-31 12:13:00,
2013-05-31 08:18:00,71.1,65.3,29.74,South,186,5.0,10.0,82,0.00,,,0.02,288.0,meteohub,2013-05-31 12:18:00,
2013-05-31 08:23:00,71.4,65.3,29.74,SW,232,10.0,11.0,81,0.00,,,0.02,339.0,meteohub,2013-05-31 12:23:00,
2013-05-31 08:28:00,72.1,65.3,29.74,SW,221,4.0,11.0,79,0.00,,,0.02,325.0,meteohub,2013-05-31 12:28:00,
2013-05-31 08:33:00,72.5,65.3,29.73,SW,236,5.0,12.0,78,0.00,,,0.02,404.0,meteohub,2013-05-31 12:33:00,
2013-05-31 08:38:00,73.0,65.8,29.73,SW,225,2.0,12.0,78,0.00,,,0.02,418.0,meteohub,2013-05-31 12:38:00,
2013-05-31 08:44:00,73.4,65.7,29.73,SSW,196,2.0,10.0,77,0.00,,,0.02,461.0,meteohub,2013-05-31 12:44:00,
2013-05-31 08:49:00,73.8,65.7,29.73,SSW,200,6.0,8.0,76,0.00,,,0.02,506.0,meteohub,2013-05-31 12:49:00,
2013-05-31 08:54:00,73.8,65.3,29.73,SW,222,8.0,10.0,75,0.00,,,0.02,195.0,meteohub,2013-05-31 12:54:00,
2013-05-31 08:59:00,73.2,65.7,29.73,SE,142,6.0,10.0,77,0.00,,,0.02,202.0,meteohub,2013-05-31 12:59:00,
2013-05-31 09:04:00,72.9,65.7,29.73,South,187,2.0,10.0,78,0.00,,,0.02,220.0,meteohub,2013-05-31 13:04:00,
2013-05-31 09:09:00,72.5,65.7,29.74,SSW,195,3.0,10.0,79,0.00,,,0.02,192.0,meteohub,2013-05-31 13:09:00,
2013-05-31 09:14:00,72.1,64.9,29.74,SW,234,2.0,9.0,78,0.00,,,0.02,190.0,meteohub,2013-05-31 13:14:00,
2013-05-31 09:19:00,71.8,65.3,29.73,SSW,202,2.0,8.0,80,0.00,,,0.02,199.0,meteohub,2013-05-31 13:19:00,
2013-05-31 09:24:00,71.8,65.3,29.74,SW,221,4.0,8.0,80,0.00,,,0.02,188.0,meteohub,2013-05-31 13:24:00,
2013-05-31 09:29:00,72.0,65.5,29.74,SSW,199,2.0,7.0,80,0.00,,,0.02,234.0,meteohub,2013-05-31 13:29:00,
2013-05-31 09:34:00,72.0,65.5,29.74,SW,223,3.0,7.0,80,0.00,,,0.02,167.0,meteohub,2013-05-31 13:34:00,
2013-05-31 09:39:00,72.0,65.1,29.74,WSW,251,1.0,7.0,79,0.00,,,0.02,209.0,meteohub,2013-05-31 13:39:00,
2013-05-31 09:44:00,72.1,65.3,29.74,SW,235,2.0,7.0,79,0.00,,,0.02,125.0,meteohub,2013-05-31 13:44:00,
2013-05-31 09:49:00,72.0,65.5,29.74,WSW,248,4.0,7.0,80,0.00,,,0.02,123.0,meteohub,2013-05-31 13:49:00,
2013-05-31 09:54:00,72.0,65.5,29.75,SW,226,2.0,7.0,80,0.00,,,0.02,121.0,meteohub,2013-05-31 13:54:00,
2013-05-31 09:59:00,71.8,65.3,29.74,South,182,6.0,7.0,80,0.00,,,0.02,116.0,meteohub,2013-05-31 13:59:00,
2013-05-31 10:04:00,71.6,65.5,29.74,West,264,5.0,11.0,81,0.00,,,0.02,156.0,meteohub,2013-05-31 14:04:00,
2013-05-31 10:09:00,71.8,65.3,29.74,SW,233,2.0,11.0,80,0.00,,,0.02,229.0,meteohub,2013-05-31 14:09:00,
2013-05-31 10:14:00,72.3,65.5,29.74,SW,229,3.0,11.0,79,0.00,,,0.02,230.0,meteohub,2013-05-31 14:14:00,
2013-05-31 10:19:00,72.5,65.3,29.74,WSW,247,8.0,15.0,78,0.00,,,0.02,151.0,meteohub,2013-05-31 14:19:00,
2013-05-31 10:24:00,72.5,65.3,29.74,WSW,237,8.0,15.0,78,0.00,,,0.02,220.0,meteohub,2013-05-31 14:24:00,
2013-05-31 10:29:00,72.7,65.5,29.74,SW,236,5.0,15.0,78,0.00,,,0.02,251.0,meteohub,2013-05-31 14:29:00,
2013-05-31 10:34:00,72.9,65.7,29.74,SSW,200,13.0,17.0,78,0.00,,,0.02,274.0,meteohub,2013-05-31 14:34:00,
2013-05-31 10:39:00,73.6,65.5,29.74,South,171,6.0,17.0,76,0.00,,,0.02,768.0,meteohub,2013-05-31 14:39:00,
2013-05-31 10:44:00,74.5,66.4,29.74,WSW,240,2.0,17.0,76,0.00,,,0.02,438.0,meteohub,2013-05-31 14:44:00,
2013-05-31 10:49:00,74.5,65.7,29.74,SW,227,6.0,16.0,74,0.00,,,0.02,408.0,meteohub,2013-05-31 14:49:00,
2013-05-31 10:54:00,74.1,65.7,29.74,SW,230,3.0,13.0,75,0.00,,,0.02,345.0,meteohub,2013-05-31 14:54:00,
2013-05-31 10:59:00,73.8,65.3,29.74,SSW,198,7.0,12.0,75,0.00,,,0.02,348.0,meteohub,2013-05-31 14:59:00,
2013-05-31 11:04:00,73.6,65.8,29.74,SW,222,3.0,16.0,77,0.00,,,0.02,366.0,meteohub,2013-05-31 15:04:00,
2013-05-31 11:09:00,73.9,66.2,29.74,SW,230,7.0,16.0,77,0.00,,,0.02,881.0,meteohub,2013-05-31 15:09:00,
2013-05-31 11:14:00,74.7,66.2,29.74,SW,229,5.0,16.0,75,0.00,,,0.02,309.0,meteohub,2013-05-31 15:14:00,
2013-05-31 11:20:00,73.9,65.1,29.74,SW,220,3.0,12.0,74,0.00,,,0.02,309.0,meteohub,2013-05-31 15:20:00,
2013-05-31 11:25:00,73.9,65.5,29.75,SW,231,1.0,12.0,75,0.00,,,0.02,577.0,meteohub,2013-05-31 15:25:00,
2013-05-31 11:30:00,73.9,65.1,29.75,SW,227,2.0,14.0,74,0.00,,,0.02,209.0,meteohub,2013-05-31 15:30:00,
2013-05-31 11:35:00,73.2,64.8,29.75,SW,229,9.0,14.0,75,0.00,,,0.02,200.0,meteohub,2013-05-31 15:35:00,
2013-05-31 11:40:00,72.9,64.0,29.75,West,261,7.0,14.0,74,0.00,,,0.02,81.0,meteohub,2013-05-31 15:40:00,
2013-05-31 11:45:00,72.3,64.4,29.75,SW,220,6.0,12.0,76,0.00,,,0.02,192.0,meteohub,2013-05-31 15:45:00,
2013-05-31 11:50:00,72.1,64.6,29.75,SSW,205,2.0,11.0,77,0.00,,,0.02,239.0,meteohub,2013-05-31 15:50:00,
2013-05-31 11:55:00,72.9,65.3,29.75,SW,232,4.0,12.0,77,0.00,,,0.02,888.0,meteohub,2013-05-31 15:55:00,
2013-05-31 12:00:00,73.9,65.8,29.75,SW,236,6.0,12.0,76,0.00,,,0.02,554.0,meteohub,2013-05-31 16:00:00,
2013-05-31 12:05:00,74.8,65.7,29.75,WSW,252,4.0,12.0,73,0.00,,,0.02,1030.0,meteohub,2013-05-31 16:05:00,
2013-05-31 12:10:00,75.0,65.8,29.75,South,186,3.0,14.0,73,0.00,,,0.02,330.0,meteohub,2013-05-31 16:10:00,
2013-05-31 12:15:00,75.4,66.2,29.76,SW,225,6.0,14.0,73,0.00,,,0.02,768.0,meteohub,2013-05-31 16:15:00,
2013-05-31 12:20:00,75.4,64.9,29.75,West,267,1.0,14.0,70,0.00,,,0.02,937.0,meteohub,2013-05-31 16:20:00,
2013-05-31 12:25:00,75.9,64.2,29.75,SW,220,4.0,14.0,67,0.00,,,0.02,844.0,meteohub,2013-05-31 16:25:00,
2013-05-31 12:30:00,75.9,64.2,29.75,SW,229,7.0,15.0,67,0.00,,,0.02,824.0,meteohub,2013-05-31 16:30:00,
2013-05-31 12:35:00,76.1,63.9,29.75,SW,223,6.0,15.0,66,0.00,,,0.02,925.0,meteohub,2013-05-31 16:35:00,
2013-05-31 12:40:00,76.6,64.0,29.75,SW,229,7.0,15.0,65,0.00,,,0.02,914.0,meteohub,2013-05-31 16:40:00,
2013-05-31 12:45:00,76.3,63.1,29.75,SSW,200,4.0,14.0,64,0.00,,,0.02,907.0,meteohub,2013-05-31 16:45:00,
2013-05-31 12:50:00,75.9,63.3,29.75,SSW,198,2.0,15.0,65,0.00,,,0.02,800.0,meteohub,2013-05-31 16:50:00,
2013-05-31 12:55:00,76.8,63.7,29.75,WSW,250,2.0,16.0,64,0.00,,,0.02,631.0,meteohub,2013-05-31 16:55:00,
2013-05-31 13:00:00,76.3,63.7,29.74,WSW,248,1.0,16.0,65,0.00,,,0.02,835.0,meteohub,2013-05-31 17:00:00,
2013-05-31 13:05:00,77.2,64.0,29.74,West,262,3.0,16.0,64,0.00,,,0.02,786.0,meteohub,2013-05-31 17:05:00,
2013-05-31 13:10:00,77.2,64.0,29.74,SSW,208,3.0,9.0,64,0.00,,,0.02,712.0,meteohub,2013-05-31 17:10:00,
2013-05-31 13:15:00,77.4,64.2,29.74,WSW,242,2.0,10.0,64,0.00,,,0.02,816.0,meteohub,2013-05-31 17:15:00,
2013-05-31 13:20:00,77.2,64.0,29.74,WSW,243,1.0,10.0,64,0.00,,,0.02,548.0,meteohub,2013-05-31 17:20:00,
2013-05-31 13:25:00,77.2,63.1,29.74,SSW,204,3.0,8.0,62,0.00,,,0.02,454.0,meteohub,2013-05-31 17:25:00,
2013-05-31 13:30:00,76.5,63.9,29.74,SW,227,5.0,10.0,65,0.00,,,0.02,487.0,meteohub,2013-05-31 17:30:00,
2013-05-31 13:35:00,76.6,63.5,29.74,SW,231,6.0,11.0,64,0.00,,,0.02,793.0,meteohub,2013-05-31 17:35:00,
2013-05-31 13:40:00,77.7,64.0,29.74,WNW,285,3.0,11.0,63,0.00,,,0.02,768.0,meteohub,2013-05-31 17:40:00,
2013-05-31 13:45:00,78.8,63.7,29.74,SW,232,3.0,11.0,60,0.00,,,0.02,770.0,meteohub,2013-05-31 17:45:00,
2013-05-31 13:50:00,78.6,63.5,29.73,WSW,255,5.0,8.0,60,0.00,,,0.02,895.0,meteohub,2013-05-31 17:50:00,
2013-05-31 13:55:00,78.6,64.0,29.73,WSW,243,3.0,12.0,61,0.00,,,0.02,937.0,meteohub,2013-05-31 17:55:00,
2013-05-31 14:00:00,78.4,63.9,29.73,WSW,238,4.0,12.0,61,0.00,,,0.02,926.0,meteohub,2013-05-31 18:00:00,
2013-05-31 14:05:00,78.8,63.3,29.73,SW,236,4.0,12.0,59,0.00,,,0.02,905.0,meteohub,2013-05-31 18:05:00,
2013-05-31 14:10:00,80.1,63.9,29.73,West,266,3.0,13.0,58,0.00,,,0.02,918.0,meteohub,2013-05-31 18:10:00,
2013-05-31 14:16:00,79.7,65.1,29.73,WNW,294,1.0,13.0,61,0.00,,,0.02,916.0,meteohub,2013-05-31 18:16:00,
2013-05-31 14:21:00,80.1,63.5,29.73,SSW,201,14.0,16.0,57,0.00,,,0.02,605.0,meteohub,2013-05-31 18:21:00,
2013-05-31 14:26:00,79.3,62.8,29.73,West,266,1.0,16.0,57,0.00,,,0.02,717.0,meteohub,2013-05-31 18:26:00,
2013-05-31 14:31:00,79.9,62.8,29.73,WSW,252,1.0,16.0,56,0.00,,,0.02,824.0,meteohub,2013-05-31 18:31:00,
2013-05-31 14:36:00,79.7,63.1,29.73,WSW,238,4.0,14.0,57,0.00,,,0.02,791.0,meteohub,2013-05-31 18:36:00,
2013-05-31 14:41:00,79.5,61.9,29.73,SSW,200,7.0,12.0,55,0.00,,,0.02,835.0,meteohub,2013-05-31 18:41:00,
2013-05-31 14:46:00,79.9,63.9,29.72,West,272,1.0,12.0,58,0.00,,,0.02,786.0,meteohub,2013-05-31 18:46:00,
2013-05-31 14:51:00,80.2,64.0,29.73,WSW,257,2.0,12.0,58,0.00,,,0.02,622.0,meteohub,2013-05-31 18:51:00,
2013-05-31 14:56:00,79.3,62.8,29.73,SW,222,3.0,12.0,57,0.00,,,0.02,522.0,meteohub,2013-05-31 18:56:00,
2013-05-31 15:01:00,78.4,63.9,29.73,South,184,1.0,10.0,61,0.00,,,0.02,383.0,meteohub,2013-05-31 19:01:00,
2013-05-31 15:06:00,78.3,63.3,29.73,WNW,287,1.0,11.0,60,0.00,,,0.02,422.0,meteohub,2013-05-31 19:06:00,
2013-05-31 15:11:00,78.4,63.9,29.73,SW,217,4.0,11.0,61,0.00,,,0.02,942.0,meteohub,2013-05-31 19:11:00,
2013-05-31 15:16:00,80.2,64.0,29.72,SW,219,2.0,7.0,58,0.00,,,0.02,972.0,meteohub,2013-05-31 19:16:00,
2013-05-31 15:21:00,79.9,63.9,29.72,WSW,254,3.0,10.0,58,0.00,,,0.02,932.0,meteohub,2013-05-31 19:21:00,
2013-05-31 15:26:00,80.4,63.9,29.72,SSW,198,3.0,10.0,57,0.00,,,0.02,932.0,meteohub,2013-05-31 19:26:00,
2013-05-31 15:31:00,81.1,64.0,29.72,SW,230,2.0,10.0,56,0.00,,,0.02,810.0,meteohub,2013-05-31 19:31:00,
2013-05-31 15:36:00,80.1,63.0,29.72,SW,229,3.0,10.0,56,0.00,,,0.02,570.0,meteohub,2013-05-31 19:36:00,
2013-05-31 15:41:00,79.7,63.7,29.71,West,266,1.0,8.0,58,0.00,,,0.02,659.0,meteohub,2013-05-31 19:41:00,
2013-05-31 15:46:00,79.5,62.4,29.71,WSW,248,1.0,8.0,56,0.00,,,0.02,826.0,meteohub,2013-05-31 19:46:00,
2013-05-31 15:51:00,79.9,63.3,29.71,SSW,206,4.0,14.0,57,0.00,,,0.02,810.0,meteohub,2013-05-31 19:51:00,
2013-05-31 15:56:00,79.9,63.3,29.71,SW,220,3.0,14.0,57,0.00,,,0.02,737.0,meteohub,2013-05-31 19:56:00,
2013-05-31 16:01:00,80.1,63.9,29.71,SW,215,7.0,11.0,58,0.00,,,0.02,831.0,meteohub,2013-05-31 20:01:00,
2013-05-31 16:06:00,80.1,63.5,29.71,SW,216,9.0,10.0,57,0.00,,,0.02,800.0,meteohub,2013-05-31 20:06:00,
2013-05-31 16:11:00,80.8,64.0,29.70,SSW,209,5.0,10.0,57,0.00,,,0.02,805.0,meteohub,2013-05-31 20:11:00,
2013-05-31 16:16:00,81.0,63.9,29.70,SW,227,9.0,10.0,56,0.00,,,0.02,719.0,meteohub,2013-05-31 20:16:00,
2013-05-31 16:21:00,80.2,64.0,29.70,South,184,8.0,10.0,58,0.00,,,0.02,580.0,meteohub,2013-05-31 20:21:00,
2013-05-31 16:26:00,80.2,62.6,29.70,WSW,245,3.0,10.0,55,0.00,,,0.02,603.0,meteohub,2013-05-31 20:26:00,
2013-05-31 16:31:00,80.2,62.6,29.70,SSW,205,7.0,10.0,55,0.00,,,0.02,529.0,meteohub,2013-05-31 20:31:00,
2013-05-31 16:36:00,80.1,63.5,29.70,SW,223,1.0,9.0,57,0.00,,,0.02,585.0,meteohub,2013-05-31 20:36:00,
2013-05-31 16:41:00,80.2,64.6,29.71,WNW,295,1.0,9.0,59,0.00,,,0.02,578.0,meteohub,2013-05-31 20:41:00,
2013-05-31 16:46:00,80.2,64.0,29.71,SW,217,2.0,8.0,58,0.00,,,0.02,519.0,meteohub,2013-05-31 20:46:00,
2013-05-31 16:51:00,80.1,63.0,29.71,SSW,213,4.0,8.0,56,0.00,,,0.02,417.0,meteohub,2013-05-31 20:51:00,
2013-05-31 16:56:00,80.1,63.0,29.71,SW,233,2.0,7.0,56,0.00,,,0.02,229.0,meteohub,2013-05-31 20:56:00,
2013-05-31 17:01:00,80.1,62.4,29.71,SW,226,2.0,9.0,55,0.00,,,0.02,265.0,meteohub,2013-05-31 21:01:00,
2013-05-31 17:06:00,79.5,61.3,29.71,SW,217,4.0,9.0,54,0.00,,,0.02,232.0,meteohub,2013-05-31 21:06:00,
2013-05-31 17:11:00,79.2,62.1,29.71,SSW,205,5.0,9.0,56,0.00,,,0.02,232.0,meteohub,2013-05-31 21:11:00,
2013-05-31 17:16:00,79.0,62.4,29.71,WSW,245,2.0,8.0,57,0.00,,,0.02,265.0,meteohub,2013-05-31 21:16:00,
2013-05-31 17:21:00,79.0,63.9,29.71,SSW,192,5.0,9.0,60,0.00,,,0.02,234.0,meteohub,2013-05-31 21:21:00,
2013-05-31 17:26:00,79.0,62.4,29.71,SW,225,3.0,9.0,57,0.00,,,0.02,255.0,meteohub,2013-05-31 21:26:00,
2013-05-31 17:31:00,79.2,61.5,29.72,SSW,205,3.0,9.0,55,0.00,,,0.02,230.0,meteohub,2013-05-31 21:31:00,
2013-05-31 17:36:00,79.3,62.8,29.71,WSW,257,1.0,9.0,57,0.00,,,0.02,213.0,meteohub,2013-05-31 21:36:00,
2013-05-31 17:41:00,79.3,62.2,29.71,SW,224,1.0,9.0,56,0.00,,,0.02,211.0,meteohub,2013-05-31 21:41:00,
2013-05-31 17:46:00,79.3,63.3,29.71,South,179,3.0,7.0,58,0.00,,,0.02,227.0,meteohub,2013-05-31 21:46:00,
2013-05-31 17:51:00,79.5,63.0,29.71,NW,319,2.0,6.0,57,0.00,,,0.02,223.0,meteohub,2013-05-31 21:51:00,
2013-05-31 17:56:00,78.8,62.8,29.72,NE,45,3.0,6.0,58,0.00,,,0.02,176.0,meteohub,2013-05-31 21:56:00,
2013-05-31 18:02:00,76.6,62.6,29.72,NE,55,0.0,7.0,62,0.00,,,0.02,114.0,meteohub,2013-05-31 22:02:00,
2013-05-31 18:07:00,75.6,63.3,29.72,ENE,74,1.0,7.0,66,0.00,,,0.02,77.0,meteohub,2013-05-31 22:07:00,
2013-05-31 18:12:00,74.5,62.8,29.72,NE,44,4.0,7.0,67,0.00,,,0.02,69.0,meteohub,2013-05-31 22:12:00,
2013-05-31 18:17:00,73.0,62.2,29.72,NE,36,4.0,8.0,69,0.00,,,0.02,60.0,meteohub,2013-05-31 22:17:00,
2013-05-31 18:22:00,72.1,62.2,29.71,NNE,17,4.0,8.0,71,0.00,,,0.02,54.0,meteohub,2013-05-31 22:22:00,
2013-05-31 18:27:00,71.6,62.4,29.71,ENE,59,3.0,8.0,73,0.00,,,0.02,53.0,meteohub,2013-05-31 22:27:00,
2013-05-31 18:32:00,71.2,62.6,29.71,NE,35,1.0,7.0,74,0.00,,,0.02,58.0,meteohub,2013-05-31 22:32:00,
2013-05-31 18:37:00,71.1,62.8,29.71,NNE,20,3.0,7.0,75,0.00,,,0.02,76.0,meteohub,2013-05-31 22:37:00,
2013-05-31 18:42:00,70.9,62.6,29.71,ENE,59,3.0,7.0,75,0.00,,,0.02,98.0,meteohub,2013-05-31 22:42:00,
2013-05-31 18:47:00,70.9,62.6,29.71,NNE,19,2.0,6.0,75,0.00,,,0.02,69.0,meteohub,2013-05-31 22:47:00,
2013-05-31 18:52:00,70.5,62.6,29.71,ENE,74,2.0,5.0,76,0.00,,,0.02,63.0,meteohub,2013-05-31 22:52:00,
2013-05-31 18:57:00,70.3,62.4,29.71,NNE,33,2.0,5.0,76,0.00,,,0.02,65.0,meteohub,2013-05-31 22:57:00,
2013-05-31 19:02:00,70.3,62.8,29.71,NE,35,1.0,5.0,77,0.00,,,0.02,83.0,meteohub,2013-05-31 23:02:00,
2013-05-31 19:07:00,70.2,62.2,29.72,NE,39,0.0,4.0,76,0.00,,,0.02,104.0,meteohub,2013-05-31 23:07:00,
2013-05-31 19:12:00,70.2,62.6,29.72,ESE,102,2.0,5.0,77,0.00,,,0.02,86.0,meteohub,2013-05-31 23:12:00,
2013-05-31 19:17:00,70.2,62.6,29.71,NE,39,1.0,5.0,77,0.00,,,0.02,76.0,meteohub,2013-05-31 23:17:00,
2013-05-31 19:22:00,70.0,62.4,29.71,NNE,33,0.0,7.0,77,0.00,,,0.02,79.0,meteohub,2013-05-31 23:22:00,
2013-05-31 19:27:00,70.0,62.4,29.71,North,0,0.0,7.0,77,0.00,,,0.02,79.0,meteohub,2013-05-31 23:27:00,
2013-05-31 19:32:00,69.8,62.6,29.72,NNE,25,0.0,4.0,78,0.00,,,0.02,83.0,meteohub,2013-05-31 23:32:00,
2013-05-31 19:37:00,69.8,62.6,29.72,NNE,19,1.0,3.0,78,0.00,,,0.02,76.0,meteohub,2013-05-31 23:37:00,
2013-05-31 19:42:00,69.8,62.6,29.72,NE,35,0.0,3.0,78,0.00,,,0.02,81.0,meteohub,2013-05-31 23:42:00,
2013-05-31 19:47:00,69.8,63.0,29.72,NE,55,1.0,3.0,79,0.00,,,0.02,83.0,meteohub,2013-05-31 23:47:00,
2013-05-31 19:52:00,69.8,63.0,29.71,NNE,32,1.0,3.0,79,0.00,,,0.02,79.0,meteohub,2013-05-31 23:52:00,
2013-05-31 19:57:00,69.8,63.0,29.71,NNE,27,2.0,3.0,79,0.00,,,0.02,83.0,meteohub,2013-05-31 23:57:00,
2013-05-31 20:02:00,69.8,63.0,29.72,North,5,3.0,5.0,79,0.00,,,0.02,67.0,meteohub,2013-06-01 00:02:00,
2013-05-31 20:07:00,69.6,62.8,29.72,NE,40,1.0,5.0,79,0.00,,,0.00,56.0,meteohub,2013-06-01 00:07:00,
2013-05-31 20:12:00,69.6,62.8,29.72,NNE,28,2.0,5.0,79,0.00,,,0.00,54.0,meteohub,2013-06-01 00:12:00,
2013-05-31 20:17:00,69.8,63.0,29.71,NE,51,2.0,4.0,79,0.00,,,0.00,53.0,meteohub,2013-06-01 00:17:00,
2013-05-31 20:22:00,70.0,63.1,29.72,NNE,33,0.0,4.0,79,0.00,,,0.00,56.0,meteohub,2013-06-01 00:22:00,
2013-05-31 20:27:00,70.0,63.1,29.72,NNE,32,3.0,4.0,79,0.00,,,0.00,63.0,meteohub,2013-06-01 00:27:00,
2013-05-31 20:33:00,70.2,63.7,29.71,ENE,76,1.0,3.0,80,0.00,,,0.00,40.0,meteohub,2013-06-01 00:33:00,
2013-05-31 20:38:00,70.2,63.7,29.71,ENE,59,2.0,3.0,80,0.00,,,0.00,26.0,meteohub,2013-06-01 00:38:00,
2013-05-31 20:42:00,70.2,63.3,29.71,NE,43,2.0,3.0,79,0.00,,,0.00,19.0,meteohub,2013-06-01 00:42:00,
2013-05-31 20:48:00,70.0,63.5,29.71,NE,51,0.0,3.0,80,0.00,,,0.00,14.0,meteohub,2013-06-01 00:48:00,
2013-05-31 20:53:00,70.0,63.9,29.71,ENE,63,1.0,3.0,81,0.00,,,0.00,11.0,meteohub,2013-06-01 00:53:00,
2013-05-31 20:58:00,69.6,63.5,29.71,ENE,60,2.0,2.0,81,0.00,,,0.00,11.0,meteohub,2013-06-01 00:58:00,
2013-05-31 21:03:00,69.4,63.7,29.71,ENE,60,0.0,3.0,82,0.00,,,0.00,11.0,meteohub,2013-06-01 01:03:00,
2013-05-31 21:08:00,69.3,63.5,29.72,ENE,60,0.0,3.0,82,0.00,,,0.00,5.0,meteohub,2013-06-01 01:08:00,
2013-05-31 21:13:00,69.1,63.7,29.71,ENE,60,1.0,3.0,83,0.00,,,0.00,5.0,meteohub,2013-06-01 01:13:00,
2013-05-31 21:18:00,68.5,63.1,29.71,ENE,70,3.0,3.0,83,0.00,,,0.00,0.0,meteohub,2013-06-01 01:18:00,
2013-05-31 21:23:00,68.5,63.1,29.71,ENE,59,1.0,3.0,83,0.00,,,0.00,0.0,meteohub,2013-06-01 01:23:00,
2013-05-31 21:28:00,68.4,62.6,29.70,NE,46,2.0,3.0,82,0.00,,,0.00,0.0,meteohub,2013-06-01 01:28:00,
2013-05-31 21:33:00,68.2,62.1,29.70,ENE,61,1.0,3.0,81,0.00,,,0.00,0.0,meteohub,2013-06-01 01:33:00,
2013-05-31 21:38:00,68.2,62.1,29.70,ENE,59,1.0,3.0,81,0.00,,,0.00,0.0,meteohub,2013-06-01 01:38:00,
2013-05-31 21:43:00,68.2,62.1,29.71,NE,47,1.0,3.0,81,0.00,,,0.00,0.0,meteohub,2013-06-01 01:43:00,
2013-05-31 21:48:00,67.8,61.7,29.70,ENE,69,1.0,3.0,81,0.00,,,0.00,0.0,meteohub,2013-06-01 01:48:00,
2013-05-31 21:53:00,67.6,61.5,29.70,ENE,59,1.0,3.0,81,0.00,,,0.00,0.0,meteohub,2013-06-01 01:53:00,
2013-05-31 21:58:00,67.5,61.7,29.70,ENE,61,1.0,3.0,82,0.00,,,0.00,0.0,meteohub,2013-06-01 01:58:00,
2013-05-31 22:03:00,67.3,61.5,29.70,East,96,1.0,2.0,82,0.00,,,0.00,0.0,meteohub,2013-06-01 02:03:00,
2013-05-31 22:08:00,67.1,61.7,29.70,ENE,61,1.0,2.0,83,0.00,,,0.00,0.0,meteohub,2013-06-01 02:08:00,
2013-05-31 22:13:00,66.9,61.5,29.70,NE,41,2.0,4.0,83,0.00,,,0.00,0.0,meteohub,2013-06-01 02:13:00,
2013-05-31 22:18:00,66.9,61.5,29.70,ESE,108,2.0,5.0,83,0.00,,,0.00,0.0,meteohub,2013-06-01 02:18:00,
2013-05-31 22:23:00,66.7,61.3,29.71,SSE,148,1.0,5.0,83,0.00,,,0.00,0.0,meteohub,2013-06-01 02:23:00,
2013-05-31 22:28:00,66.6,61.2,29.71,NE,51,1.0,5.0,83,0.00,,,0.00,0.0,meteohub,2013-06-01 02:28:00,
2013-05-31 22:33:00,66.6,61.2,29.71,NE,39,2.0,5.0,83,0.00,,,0.00,0.0,meteohub,2013-06-01 02:33:00,
2013-05-31 22:38:00,66.4,61.3,29.71,ESE,109,2.0,5.0,84,0.00,,,0.00,0.0,meteohub,2013-06-01 02:38:00,
2013-05-31 22:43:00,66.0,61.0,29.71,ENE,78,0.0,4.0,84,0.00,,,0.00,0.0,meteohub,2013-06-01 02:43:00,
2013-05-31 22:48:00,65.8,60.8,29.71,NE,56,0.0,4.0,84,0.00,,,0.00,0.0,meteohub,2013-06-01 02:48:00,
2013-05-31 22:53:00,65.7,61.0,29.71,ENE,62,1.0,4.0,85,0.00,,,0.00,0.0,meteohub,2013-06-01 02:53:00,
2013-05-31 22:58:00,65.7,61.0,29.71,East,98,1.0,3.0,85,0.00,,,0.00,0.0,meteohub,2013-06-01 02:58:00,
2013-05-31 23:03:00,65.5,61.2,29.70,East,98,0.0,3.0,86,0.00,,,0.00,0.0,meteohub,2013-06-01 03:03:00,
2013-05-31 23:08:00,65.1,60.8,29.70,ESE,117,1.0,3.0,86,0.00,,,0.00,0.0,meteohub,2013-06-01 03:08:00,
2013-05-31 23:13:00,64.9,61.0,29.70,SE,140,0.0,3.0,87,0.00,,,0.00,0.0,meteohub,2013-06-01 03:13:00,
2013-05-31 23:18:00,64.8,61.2,29.70,ENE,69,0.0,3.0,88,0.00,,,0.00,0.0,meteohub,2013-06-01 03:18:00,
2013-05-31 23:23:00,64.8,61.2,29.70,SSE,151,0.0,5.0,88,0.00,,,0.00,0.0,meteohub,2013-06-01 03:23:00,
2013-05-31 23:28:00,64.8,61.2,29.70,SSE,150,0.0,5.0,88,0.00,,,0.00,0.0,meteohub,2013-06-01 03:28:00,
2013-05-31 23:33:00,64.8,61.5,29.70,South,185,2.0,5.0,89,0.00,,,0.00,0.0,meteohub,2013-06-01 03:33:00,
2013-05-31 23:38:00,64.8,61.2,29.71,SE,143,0.0,5.0,88,0.00,,,0.00,0.0,meteohub,2013-06-01 03:38:00,
2013-05-31 23:43:00,64.9,61.3,29.71,SE,130,1.0,7.0,88,0.00,,,0.00,0.0,meteohub,2013-06-01 03:43:00,
2013-05-31 23:48:00,65.1,61.5,29.70,ENE,58,3.0,7.0,88,0.00,,,0.00,0.0,meteohub,2013-06-01 03:48:00,
2013-05-31 23:53:00,65.3,61.7,29.70,SSE,165,1.0,6.0,88,0.00,,,0.00,0.0,meteohub,2013-06-01 03:53:00,
2013-05-31 23:58:00,65.5,61.9,29.70,SW,229,1.0,5.0,88,0.00,,,0.00,0.0,meteohub,2013-06-01 03:58:00,